EIKY/KIR METAR and TAF weather

Enter ICAO airport designator
Station Type Date Time Source
EIKY METAR 2020/06/06 18:00 UTC NOAA

EIKY 061800Z 33009G22KT 280V010 5000 -RA FEW009 BKN029 OVC033 11/09 Q1010


Station Type Date Time Source
EIKY Decoded METAR 2020/06/06 18:00 UTC NOAA

Station name not available
Jun 06, 2020 - 02:00 PM EDT / 2020.06.06 1800 UTC
Wind: from the NNW (330 degrees) at 10 MPH (9 KT) gusting to 25 MPH (22 KT) (direction variable):0
Visibility: 3 mile(s):0
Sky conditions: overcast
Weather: light rain
Temperature: 51 F (11 C)
Dew Point: 48 F (9 C)
Relative Humidity: 87%
Pressure (altimeter): 29.83 in. Hg (1010 hPa)
ob: EIKY 061800Z 33009G22KT 280V010 5000 -RA FEW009 BKN029 OVC033 11/09 Q1010
cycle: 18

Station Type Date Time Source
EIKY TAF UTC NOAA

Error!

Example: see airport list